LAZ935 LBSF-LBWN
Flight info
| Callsign | LAZ935 |
|---|---|
| Flight time | 0h 41m |
| Altitude | 29000 |
| Route | UMPIT3W/27 UMPIT DCT DICXA |
| Aircraft | T154/M-SDGRWY/S |
Departure
| Time | 2026-05-04 19:17 |
|---|---|
| Airport | Sofia Airport (LBSF) |
Arrival
| Time | 2026-05-04 19:58 |
|---|---|
| Airport | Varna Airport (LBWN) |
| Time | Latitude | Longitude | Altitude | Speed | Heading |
|---|---|---|---|---|---|
| 2026-05-04 18:33 | 42.68985 | 23.40920 | 1768 ft | 0 kts | 163° |
| 2026-05-04 19:09 | 42.68984 | 23.40920 | 1767 ft | 0 kts | 163° |
| 2026-05-04 19:09 | 42.68969 | 23.40926 | 1767 ft | 4 kts | 163° |
| 2026-05-04 19:09 | 42.68932 | 23.40958 | 1767 ft | 8 kts | 111° |
| 2026-05-04 19:10 | 42.68941 | 23.41038 | 1766 ft | 10 kts | 73° |
| 2026-05-04 19:10 | 42.68969 | 23.41154 | 1762 ft | 15 kts | 60° |
| 2026-05-04 19:10 | 42.69021 | 23.41225 | 1758 ft | 8 kts | 6° |
| 2026-05-04 19:10 | 42.69083 | 23.41204 | 1759 ft | 9 kts | 343° |
| 2026-05-04 19:11 | 42.69144 | 23.41178 | 1760 ft | 9 kts | 341° |
| 2026-05-04 19:11 | 42.69214 | 23.41151 | 1760 ft | 12 kts | 355° |
| 2026-05-04 19:11 | 42.69311 | 23.41172 | 1757 ft | 16 kts | 11° |
| 2026-05-04 19:11 | 42.69421 | 23.41202 | 1757 ft | 13 kts | 11° |
| 2026-05-04 19:12 | 42.69477 | 23.41258 | 1757 ft | 10 kts | 73° |
| 2026-05-04 19:12 | 42.69468 | 23.41528 | 1754 ft | 20 kts | 94° |
| 2026-05-04 19:12 | 42.69455 | 23.41739 | 1753 ft | 24 kts | 94° |
| 2026-05-04 19:13 | 42.69440 | 23.41986 | 1752 ft | 27 kts | 94° |
| 2026-05-04 19:13 | 42.69425 | 23.42242 | 1754 ft | 27 kts | 95° |
| 2026-05-04 19:13 | 42.69410 | 23.42501 | 1752 ft | 28 kts | 94° |
| 2026-05-04 19:13 | 42.69394 | 23.42770 | 1749 ft | 26 kts | 94° |
| 2026-05-04 19:14 | 42.69378 | 23.43025 | 1750 ft | 26 kts | 95° |
| 2026-05-04 19:14 | 42.69363 | 23.43272 | 1754 ft | 25 kts | 95° |
| 2026-05-04 19:14 | 42.69349 | 23.43512 | 1757 ft | 25 kts | 95° |
| 2026-05-04 19:14 | 42.69335 | 23.43732 | 1757 ft | 18 kts | 94° |
| 2026-05-04 19:15 | 42.69327 | 23.43879 | 1757 ft | 12 kts | 85° |
| 2026-05-04 19:15 | 42.69362 | 23.43942 | 1757 ft | 8 kts | 13° |
| 2026-05-04 19:15 | 42.69426 | 23.43948 | 1757 ft | 9 kts | 2° |
| 2026-05-04 19:15 | 42.69492 | 23.43953 | 1757 ft | 7 kts | 1° |
| 2026-05-04 19:16 | 42.69517 | 23.43920 | 1757 ft | 5 kts | 274° |
| 2026-05-04 19:16 | 42.69518 | 23.43896 | 1757 ft | 0 kts | 274° |
| 2026-05-04 19:16 | 42.69522 | 23.43816 | 1757 ft | 31 kts | 274° |
| 2026-05-04 19:16 | 42.69564 | 23.43075 | 1747 ft | 124 kts | 274° |
| 2026-05-04 19:17 | 42.69659 | 23.41577 | 1883 ft | 183 kts | 274° |
| 2026-05-04 19:17 | 42.69808 | 23.39813 | 2520 ft | 201 kts | 275° |
| 2026-05-04 19:17 | 42.70240 | 23.37912 | 3136 ft | 219 kts | 304° |
| 2026-05-04 19:17 | 42.71360 | 23.36612 | 3820 ft | 221 kts | 338° |
| 2026-05-04 19:18 | 42.72875 | 23.36350 | 4446 ft | 224 kts | 13° |
| 2026-05-04 19:18 | 42.74274 | 23.37033 | 5411 ft | 214 kts | 23° |
| 2026-05-04 19:18 | 42.75693 | 23.37819 | 6023 ft | 221 kts | 21° |
| 2026-05-04 19:18 | 42.76901 | 23.38974 | 6789 ft | 220 kts | 52° |
| 2026-05-04 19:19 | 42.77511 | 23.40884 | 7538 ft | 222 kts | 73° |
| 2026-05-04 19:19 | 42.77826 | 23.42909 | 8247 ft | 224 kts | 76° |
| 2026-05-04 19:19 | 42.78078 | 23.45012 | 8980 ft | 226 kts | 82° |
| 2026-05-04 19:19 | 42.78108 | 23.47119 | 9726 ft | 225 kts | 87° |
| 2026-05-04 19:20 | 42.78072 | 23.49254 | 10321 ft | 229 kts | 86° |
| 2026-05-04 19:20 | 42.78065 | 23.51430 | 10851 ft | 237 kts | 86° |
| 2026-05-04 19:20 | 42.78070 | 23.53715 | 11286 ft | 248 kts | 86° |
| 2026-05-04 19:20 | 42.78076 | 23.56119 | 11720 ft | 259 kts | 86° |
| 2026-05-04 19:21 | 42.78078 | 23.58619 | 12131 ft | 272 kts | 86° |
| 2026-05-04 19:21 | 42.78078 | 23.61240 | 12532 ft | 283 kts | 86° |
| 2026-05-04 19:21 | 42.78078 | 23.63963 | 12973 ft | 293 kts | 86° |
| 2026-05-04 19:21 | 42.78078 | 23.66753 | 13383 ft | 303 kts | 87° |
| 2026-05-04 19:22 | 42.78076 | 23.69625 | 14019 ft | 304 kts | 87° |
| 2026-05-04 19:22 | 42.78071 | 23.72508 | 14625 ft | 307 kts | 87° |
| 2026-05-04 19:22 | 42.78068 | 23.75449 | 15159 ft | 312 kts | 87° |
| 2026-05-04 19:22 | 42.78066 | 23.78389 | 15736 ft | 315 kts | 87° |
| 2026-05-04 19:23 | 42.78064 | 23.81396 | 16306 ft | 317 kts | 87° |
| 2026-05-04 19:23 | 42.78060 | 23.84407 | 16826 ft | 321 kts | 87° |
| 2026-05-04 19:23 | 42.78055 | 23.87440 | 17343 ft | 325 kts | 87° |
| 2026-05-04 19:23 | 42.78048 | 23.90520 | 17866 ft | 328 kts | 87° |
| 2026-05-04 19:24 | 42.78041 | 23.93607 | 18386 ft | 331 kts | 87° |
| 2026-05-04 19:24 | 42.78033 | 23.96748 | 18875 ft | 335 kts | 87° |
| 2026-05-04 19:24 | 42.78025 | 23.99934 | 19354 ft | 339 kts | 87° |
| 2026-05-04 19:24 | 42.78016 | 24.03165 | 19835 ft | 342 kts | 87° |
| 2026-05-04 19:25 | 42.78005 | 24.06401 | 20301 ft | 346 kts | 87° |
| 2026-05-04 19:25 | 42.77993 | 24.09686 | 20761 ft | 350 kts | 87° |
| 2026-05-04 19:25 | 42.77980 | 24.12995 | 21229 ft | 354 kts | 87° |
| 2026-05-04 19:25 | 42.77968 | 24.16337 | 21681 ft | 357 kts | 86° |
| 2026-05-04 19:26 | 42.78222 | 24.19688 | 22096 ft | 357 kts | 75° |
| 2026-05-04 19:26 | 42.78797 | 24.22979 | 22567 ft | 359 kts | 73° |
| 2026-05-04 19:26 | 42.79372 | 24.26284 | 23023 ft | 363 kts | 74° |
| 2026-05-04 19:26 | 42.79919 | 24.29652 | 23474 ft | 366 kts | 74° |
| 2026-05-04 19:27 | 42.80464 | 24.33067 | 23962 ft | 368 kts | 75° |
| 2026-05-04 19:27 | 42.81001 | 24.36434 | 24398 ft | 371 kts | 75° |
| 2026-05-04 19:27 | 42.81548 | 24.39881 | 24853 ft | 374 kts | 75° |
| 2026-05-04 19:27 | 42.82099 | 24.43357 | 25288 ft | 378 kts | 75° |
| 2026-05-04 19:28 | 42.82653 | 24.46867 | 25729 ft | 381 kts | 75° |
| 2026-05-04 19:28 | 42.83210 | 24.50400 | 26182 ft | 383 kts | 75° |
| 2026-05-04 19:28 | 42.83767 | 24.53936 | 26617 ft | 386 kts | 75° |
| 2026-05-04 19:28 | 42.84333 | 24.57534 | 27035 ft | 390 kts | 75° |
| 2026-05-04 19:29 | 42.84898 | 24.61142 | 27436 ft | 393 kts | 75° |
| 2026-05-04 19:29 | 42.85468 | 24.64790 | 27828 ft | 397 kts | 75° |
| 2026-05-04 19:29 | 42.86047 | 24.68508 | 28171 ft | 402 kts | 76° |
| 2026-05-04 19:29 | 42.86624 | 24.72225 | 28557 ft | 405 kts | 76° |
| 2026-05-04 19:30 | 42.87207 | 24.75996 | 28831 ft | 412 kts | 76° |
| 2026-05-04 19:30 | 42.87801 | 24.79836 | 28948 ft | 419 kts | 76° |
| 2026-05-04 19:30 | 42.88408 | 24.83762 | 29116 ft | 425 kts | 76° |
| 2026-05-04 19:31 | 42.89637 | 24.91741 | 29154 ft | 440 kts | 76° |
| 2026-05-04 19:31 | 42.90905 | 25.00017 | 29131 ft | 447 kts | 76° |
| 2026-05-04 19:32 | 42.92171 | 25.08320 | 29109 ft | 452 kts | 76° |
| 2026-05-04 19:32 | 42.93435 | 25.16665 | 29090 ft | 451 kts | 76° |
| 2026-05-04 19:33 | 42.94706 | 25.25073 | 29077 ft | 450 kts | 76° |
| 2026-05-04 19:33 | 42.95956 | 25.33422 | 29069 ft | 449 kts | 76° |
| 2026-05-04 19:34 | 42.97199 | 25.41736 | 29079 ft | 448 kts | 76° |
| 2026-05-04 19:34 | 42.98418 | 25.49942 | 29026 ft | 435 kts | 76° |
| 2026-05-04 19:34 | 42.99014 | 25.53990 | 28684 ft | 429 kts | 76° |
| 2026-05-04 19:35 | 42.99605 | 25.57979 | 28093 ft | 430 kts | 76° |
| 2026-05-04 19:35 | 43.00188 | 25.61955 | 27480 ft | 429 kts | 76° |
| 2026-05-04 19:35 | 43.00769 | 25.65939 | 26899 ft | 428 kts | 76° |
| 2026-05-04 19:35 | 43.01356 | 25.69930 | 26186 ft | 428 kts | 76° |
| 2026-05-04 19:36 | 43.01937 | 25.73887 | 25581 ft | 426 kts | 76° |
| 2026-05-04 19:36 | 43.02517 | 25.77833 | 25110 ft | 420 kts | 76° |
| 2026-05-04 19:36 | 43.03083 | 25.81689 | 24548 ft | 416 kts | 76° |
| 2026-05-04 19:36 | 43.03644 | 25.85519 | 24008 ft | 412 kts | 76° |
| 2026-05-04 19:37 | 43.04206 | 25.89353 | 23420 ft | 408 kts | 76° |
| 2026-05-04 19:37 | 43.04752 | 25.93094 | 22882 ft | 403 kts | 76° |
| 2026-05-04 19:37 | 43.05298 | 25.96838 | 22305 ft | 399 kts | 76° |
| 2026-05-04 19:37 | 43.05832 | 26.00509 | 21660 ft | 393 kts | 76° |
| 2026-05-04 19:38 | 43.06360 | 26.04153 | 20917 ft | 389 kts | 76° |
| 2026-05-04 19:38 | 43.06879 | 26.07736 | 20186 ft | 384 kts | 76° |
| 2026-05-04 19:38 | 43.07391 | 26.11281 | 19440 ft | 380 kts | 76° |
| 2026-05-04 19:38 | 43.07893 | 26.14764 | 18723 ft | 375 kts | 76° |
| 2026-05-04 19:39 | 43.08388 | 26.18212 | 17968 ft | 371 kts | 76° |
| 2026-05-04 19:39 | 43.08881 | 26.21658 | 17269 ft | 365 kts | 76° |
| 2026-05-04 19:39 | 43.09364 | 26.25030 | 16546 ft | 360 kts | 76° |
| 2026-05-04 19:39 | 43.09834 | 26.28324 | 15858 ft | 354 kts | 75° |
| 2026-05-04 19:40 | 43.10304 | 26.31595 | 15108 ft | 350 kts | 75° |
| 2026-05-04 19:40 | 43.10783 | 26.34827 | 14382 ft | 345 kts | 75° |
| 2026-05-04 19:40 | 43.11250 | 26.38024 | 13654 ft | 341 kts | 75° |
| 2026-05-04 19:40 | 43.11699 | 26.41164 | 13023 ft | 336 kts | 75° |
| 2026-05-04 19:41 | 43.12142 | 26.44288 | 12360 ft | 333 kts | 74° |
| 2026-05-04 19:41 | 43.12582 | 26.47399 | 11676 ft | 330 kts | 74° |
| 2026-05-04 19:41 | 43.13010 | 26.50442 | 11033 ft | 326 kts | 74° |
| 2026-05-04 19:41 | 43.13425 | 26.53408 | 10563 ft | 316 kts | 74° |
| 2026-05-04 19:42 | 43.13831 | 26.56326 | 10282 ft | 302 kts | 74° |
| 2026-05-04 19:42 | 43.14214 | 26.59083 | 9976 ft | 290 kts | 73° |
| 2026-05-04 19:42 | 43.14574 | 26.61683 | 9928 ft | 271 kts | 73° |
| 2026-05-04 19:42 | 43.14916 | 26.64157 | 9840 ft | 255 kts | 73° |
| 2026-05-04 19:43 | 43.15242 | 26.66502 | 9514 ft | 251 kts | 73° |
| 2026-05-04 19:43 | 43.15573 | 26.68863 | 9051 ft | 251 kts | 73° |
| 2026-05-04 19:43 | 43.15895 | 26.71185 | 8663 ft | 249 kts | 73° |
| 2026-05-04 19:43 | 43.16216 | 26.73506 | 8221 ft | 249 kts | 73° |
| 2026-05-04 19:44 | 43.16540 | 26.75846 | 7804 ft | 247 kts | 73° |
| 2026-05-04 19:44 | 43.16854 | 26.78120 | 7385 ft | 246 kts | 73° |
| 2026-05-04 19:44 | 43.17175 | 26.80442 | 6941 ft | 248 kts | 73° |
| 2026-05-04 19:44 | 43.17498 | 26.82763 | 6683 ft | 250 kts | 73° |
| 2026-05-04 19:45 | 43.17816 | 26.85088 | 6545 ft | 246 kts | 73° |
| 2026-05-04 19:45 | 43.18133 | 26.87393 | 6314 ft | 249 kts | 73° |
| 2026-05-04 19:45 | 43.18454 | 26.89712 | 6166 ft | 248 kts | 73° |
| 2026-05-04 19:45 | 43.18776 | 26.92049 | 5991 ft | 248 kts | 73° |
| 2026-05-04 19:46 | 43.19104 | 26.94380 | 5840 ft | 248 kts | 74° |
| 2026-05-04 19:46 | 43.19422 | 26.96682 | 5712 ft | 247 kts | 74° |
| 2026-05-04 19:46 | 43.19739 | 26.99013 | 5563 ft | 247 kts | 74° |
| 2026-05-04 19:46 | 43.20051 | 27.01309 | 5412 ft | 247 kts | 74° |
| 2026-05-04 19:47 | 43.20365 | 27.03626 | 5275 ft | 246 kts | 74° |
| 2026-05-04 19:47 | 43.20674 | 27.05914 | 5127 ft | 246 kts | 75° |
| 2026-05-04 19:47 | 43.20985 | 27.08218 | 4979 ft | 246 kts | 75° |
| 2026-05-04 19:47 | 43.21297 | 27.10531 | 4826 ft | 246 kts | 75° |
| 2026-05-04 19:48 | 43.21607 | 27.12840 | 4684 ft | 246 kts | 75° |
| 2026-05-04 19:48 | 43.21918 | 27.15157 | 4536 ft | 246 kts | 75° |
| 2026-05-04 19:48 | 43.22227 | 27.17460 | 4400 ft | 246 kts | 75° |
| 2026-05-04 19:48 | 43.22531 | 27.19737 | 4247 ft | 246 kts | 75° |
| 2026-05-04 19:49 | 43.22838 | 27.22042 | 4116 ft | 246 kts | 75° |
| 2026-05-04 19:49 | 43.23146 | 27.24345 | 3977 ft | 245 kts | 75° |
| 2026-05-04 19:49 | 43.23450 | 27.26630 | 3936 ft | 241 kts | 75° |
| 2026-05-04 19:49 | 43.23744 | 27.28855 | 3947 ft | 237 kts | 75° |
| 2026-05-04 19:50 | 43.24047 | 27.31120 | 3984 ft | 241 kts | 75° |
| 2026-05-04 19:50 | 43.24345 | 27.33356 | 4004 ft | 242 kts | 75° |
| 2026-05-04 19:50 | 43.24618 | 27.35187 | 4001 ft | 241 kts | 73° |
| 2026-05-04 19:50 | 43.24985 | 27.37427 | 3994 ft | 241 kts | 72° |
| 2026-05-04 19:51 | 43.25367 | 27.39616 | 3983 ft | 235 kts | 72° |
| 2026-05-04 19:51 | 43.25645 | 27.41819 | 3933 ft | 227 kts | 78° |
| 2026-05-04 19:51 | 43.25824 | 27.43900 | 3899 ft | 213 kts | 78° |
| 2026-05-04 19:51 | 43.25975 | 27.45794 | 3934 ft | 191 kts | 78° |
| 2026-05-04 19:52 | 43.26105 | 27.47583 | 3921 ft | 185 kts | 79° |
| 2026-05-04 19:52 | 43.26147 | 27.49304 | 3892 ft | 181 kts | 84° |
| 2026-05-04 19:52 | 43.26069 | 27.51017 | 3870 ft | 178 kts | 89° |
| 2026-05-04 19:52 | 43.25907 | 27.52696 | 3859 ft | 175 kts | 91° |
| 2026-05-04 19:53 | 43.25725 | 27.54274 | 3986 ft | 158 kts | 91° |
| 2026-05-04 19:53 | 43.25561 | 27.55731 | 3982 ft | 157 kts | 89° |
| 2026-05-04 19:53 | 43.25421 | 27.57266 | 3847 ft | 163 kts | 89° |
| 2026-05-04 19:53 | 43.25294 | 27.58835 | 3589 ft | 168 kts | 89° |
| 2026-05-04 19:54 | 43.25168 | 27.60414 | 3294 ft | 168 kts | 89° |
| 2026-05-04 19:54 | 43.25032 | 27.61993 | 3015 ft | 166 kts | 90° |
| 2026-05-04 19:54 | 43.24892 | 27.63551 | 2758 ft | 162 kts | 90° |
| 2026-05-04 19:54 | 43.24755 | 27.65063 | 2534 ft | 158 kts | 91° |
| 2026-05-04 19:55 | 43.24627 | 27.66528 | 2310 ft | 153 kts | 91° |
| 2026-05-04 19:55 | 43.24499 | 27.67937 | 2143 ft | 141 kts | 92° |
| 2026-05-04 19:55 | 43.24381 | 27.69257 | 1988 ft | 140 kts | 91° |
| 2026-05-04 19:55 | 43.24269 | 27.70566 | 1773 ft | 139 kts | 92° |
| 2026-05-04 19:56 | 43.24140 | 27.71896 | 1558 ft | 140 kts | 93° |
| 2026-05-04 19:56 | 43.24015 | 27.73203 | 1371 ft | 141 kts | 93° |
| 2026-05-04 19:56 | 43.23889 | 27.74533 | 1175 ft | 142 kts | 93° |
| 2026-05-04 19:56 | 43.23773 | 27.75880 | 994 ft | 143 kts | 92° |
| 2026-05-04 19:57 | 43.23662 | 27.77251 | 795 ft | 143 kts | 94° |
| 2026-05-04 19:57 | 43.23548 | 27.78596 | 606 ft | 142 kts | 94° |
| 2026-05-04 19:57 | 43.23423 | 27.79941 | 397 ft | 142 kts | 95° |
| 2026-05-04 19:57 | 43.23306 | 27.81279 | 223 ft | 141 kts | 95° |
| 2026-05-04 19:58 | 43.23204 | 27.82424 | 231 ft | 93 kts | 96° |
| 2026-05-04 19:58 | 43.23150 | 27.83025 | 240 ft | 39 kts | 97° |
| 2026-05-04 19:58 | 43.23131 | 27.83235 | 239 ft | 11 kts | 95° |
| 2026-05-04 19:58 | 43.23151 | 27.83286 | 240 ft | 5 kts | 9° |
| 2026-05-04 19:59 | 43.23187 | 27.83290 | 241 ft | 4 kts | 4° |
| 2026-05-04 19:59 | 43.23219 | 27.83293 | 242 ft | 5 kts | 6° |
| 2026-05-04 19:59 | 43.23266 | 27.83301 | 244 ft | 7 kts | 7° |
| 2026-05-04 19:59 | 43.23315 | 27.83310 | 246 ft | 6 kts | 8° |
| 2026-05-04 20:00 | 43.23356 | 27.83308 | 248 ft | 4 kts | 339° |
| 2026-05-04 20:00 | 43.23377 | 27.83280 | 250 ft | 5 kts | 295° |
| 2026-05-04 20:00 | 43.23386 | 27.83204 | 250 ft | 9 kts | 277° |
| 2026-05-04 20:00 | 43.23392 | 27.83135 | 250 ft | 5 kts | 285° |
| 2026-05-04 20:01 | 43.23416 | 27.83094 | 250 ft | 4 kts | 326° |
| 2026-05-04 20:01 | 43.23439 | 27.83078 | 251 ft | 2 kts | 340° |
| 2026-05-04 20:01 | 43.23453 | 27.83070 | 252 ft | 1 kts | 342° |
| 2026-05-04 20:01 | 43.23466 | 27.83065 | 253 ft | 2 kts | 341° |
| 2026-05-04 20:02 | 43.23481 | 27.83057 | 254 ft | 0 kts | 339° |